sensor_id;sensor_type;location;lat;lon;timestamp;P1;durP1;ratioP1;P2;durP2;ratioP2
7747;SDS011;3918;42.564;23.164;2022-10-22T05:01:42;597.60;;;559.50;;
7747;SDS011;3918;42.564;23.164;2022-10-22T05:04:10;642.00;;;599.95;;
7747;SDS011;3918;42.564;23.164;2022-10-22T05:06:38;760.72;;;708.95;;
7747;SDS011;3918;42.564;23.164;2022-10-22T05:09:06;805.33;;;749.85;;
7747;SDS011;3918;42.564;23.164;2022-10-22T05:11:34;680.97;;;635.58;;
7747;SDS011;3918;42.564;23.164;2022-10-22T05:14:03;506.83;;;475.20;;
7747;SDS011;3918;42.564;23.164;2022-10-22T05:16:32;622.80;;;582.60;;
7747;SDS011;3918;42.564;23.164;2022-10-22T05:19:01;642.50;;;600.80;;
7747;SDS011;3918;42.564;23.164;2022-10-22T05:21:28;642.70;;;600.92;;
7747;SDS011;3918;42.564;23.164;2022-10-22T05:23:55;725.72;;;676.78;;
7747;SDS011;3918;42.564;23.164;2022-10-22T05:26:23;608.40;;;569.53;;
7747;SDS011;3918;42.564;23.164;2022-10-22T05:28:51;710.88;;;663.28;;
7747;SDS011;3918;42.564;23.164;2022-10-22T05:31:18;837.80;;;780.85;;
7747;SDS011;3918;42.564;23.164;2022-10-22T05:33:45;597.55;;;560.15;;
7747;SDS011;3918;42.564;23.164;2022-10-22T05:36:14;572.40;;;536.17;;
7747;SDS011;3918;42.564;23.164;2022-10-22T05:38:42;582.08;;;545.58;;
7747;SDS011;3918;42.564;23.164;2022-10-22T05:41:10;537.83;;;505.10;;
7747;SDS011;3918;42.564;23.164;2022-10-22T05:43:40;578.65;;;542.63;;
7747;SDS011;3918;42.564;23.164;2022-10-22T05:46:08;597.03;;;559.05;;
7747;SDS011;3918;42.564;23.164;2022-10-22T05:48:36;588.85;;;551.58;;
7747;SDS011;3918;42.564;23.164;2022-10-22T05:51:04;509.70;;;478.35;;
7747;SDS011;3918;42.564;23.164;2022-10-22T05:53:34;618.70;;;578.25;;
7747;SDS011;3918;42.564;23.164;2022-10-22T05:56:03;729.42;;;680.53;;
7747;SDS011;3918;42.564;23.164;2022-10-22T05:58:32;479.20;;;450.73;;
7747;SDS011;3918;42.564;23.164;2022-10-22T06:01:00;321.23;;;303.10;;
7747;SDS011;3918;42.564;23.164;2022-10-22T06:03:28;460.55;;;433.05;;
7747;SDS011;3918;42.564;23.164;2022-10-22T06:05:56;524.05;;;491.38;;
7747;SDS011;3918;42.564;23.164;2022-10-22T06:08:24;724.03;;;675.10;;
7747;SDS011;3918;42.564;23.164;2022-10-22T06:10:53;701.88;;;654.63;;
7747;SDS011;3918;42.564;23.164;2022-10-22T06:13:20;804.03;;;749.08;;
7747;SDS011;3918;42.564;23.164;2022-10-22T06:15:47;850.85;;;791.75;;
7747;SDS011;3918;42.564;23.164;2022-10-22T06:18:14;879.42;;;817.47;;
7747;SDS011;3918;42.564;23.164;2022-10-22T06:20:41;923.33;;;857.58;;
7747;SDS011;3918;42.564;23.164;2022-10-22T06:23:09;898.90;;;835.40;;
7747;SDS011;3918;42.564;23.164;2022-10-22T06:25:36;908.95;;;844.53;;
7747;SDS011;3918;42.564;23.164;2022-10-22T06:28:04;919.92;;;854.88;;
7747;SDS011;3918;42.564;23.164;2022-10-22T06:30:31;897.83;;;834.70;;
7747;SDS011;3918;42.564;23.164;2022-10-22T06:32:58;890.05;;;828.00;;
7747;SDS011;3918;42.564;23.164;2022-10-22T06:35:24;919.03;;;854.90;;
7747;SDS011;3918;42.564;23.164;2022-10-22T06:37:51;934.88;;;867.30;;
7747;SDS011;3918;42.564;23.164;2022-10-22T06:40:18;908.80;;;844.15;;
7747;SDS011;3918;42.564;23.164;2022-10-22T06:42:45;849.72;;;791.45;;
7747;SDS011;3918;42.564;23.164;2022-10-22T06:45:13;787.20;;;734.03;;
7747;SDS011;3918;42.564;23.164;2022-10-22T06:47:40;685.28;;;639.65;;
7747;SDS011;3918;42.564;23.164;2022-10-22T06:50:07;669.55;;;625.50;;
7747;SDS011;3918;42.564;23.164;2022-10-22T06:52:34;596.97;;;559.35;;
7747;SDS011;3918;42.564;23.164;2022-10-22T06:55:01;597.20;;;560.03;;
7747;SDS011;3918;42.564;23.164;2022-10-22T06:57:28;508.05;;;478.38;;
7747;SDS011;3918;42.564;23.164;2022-10-22T06:59:55;461.05;;;434.90;;
7747;SDS011;3918;42.564;23.164;2022-10-22T07:02:23;476.35;;;448.08;;
7747;SDS011;3918;42.564;23.164;2022-10-22T07:04:50;411.95;;;388.92;;
7747;SDS011;3918;42.564;23.164;2022-10-22T07:07:17;355.02;;;335.92;;
7747;SDS011;3918;42.564;23.164;2022-10-22T07:09:59;366.60;;;346.70;;
7747;SDS011;3918;42.564;23.164;2022-10-22T07:12:26;309.67;;;293.25;;
7747;SDS011;3918;42.564;23.164;2022-10-22T07:14:53;307.00;;;289.92;;
7747;SDS011;3918;42.564;23.164;2022-10-22T07:17:19;308.63;;;292.25;;
7747;SDS011;3918;42.564;23.164;2022-10-22T07:19:46;374.15;;;353.88;;
7747;SDS011;3918;42.564;23.164;2022-10-22T07:22:13;340.17;;;322.05;;
7747;SDS011;3918;42.564;23.164;2022-10-22T07:24:40;309.92;;;293.27;;
7747;SDS011;3918;42.564;23.164;2022-10-22T07:27:08;323.60;;;306.20;;
7747;SDS011;3918;42.564;23.164;2022-10-22T07:29:38;343.92;;;324.75;;
7747;SDS011;3918;42.564;23.164;2022-10-22T07:32:05;296.60;;;280.58;;
7747;SDS011;3918;42.564;23.164;2022-10-22T07:34:32;265.17;;;251.20;;
7747;SDS011;3918;42.564;23.164;2022-10-22T07:36:58;305.88;;;289.45;;
7747;SDS011;3918;42.564;23.164;2022-10-22T07:39:25;416.67;;;393.35;;
7747;SDS011;3918;42.564;23.164;2022-10-22T07:41:52;396.23;;;373.85;;
7747;SDS011;3918;42.564;23.164;2022-10-22T07:44:21;581.58;;;545.17;;
7747;SDS011;3918;42.564;23.164;2022-10-22T07:46:47;554.20;;;520.30;;
7747;SDS011;3918;42.564;23.164;2022-10-22T07:49:14;609.53;;;571.03;;
7747;SDS011;3918;42.564;23.164;2022-10-22T07:51:41;609.38;;;570.55;;
7747;SDS011;3918;42.564;23.164;2022-10-22T07:54:08;584.85;;;548.05;;
7747;SDS011;3918;42.564;23.164;2022-10-22T07:56:34;686.95;;;640.95;;
7747;SDS011;3918;42.564;23.164;2022-10-22T07:59:01;733.55;;;683.85;;
7747;SDS011;3918;42.564;23.164;2022-10-22T08:01:29;777.40;;;724.83;;
7747;SDS011;3918;42.564;23.164;2022-10-22T08:03:56;793.30;;;739.40;;
7747;SDS011;3918;42.564;23.164;2022-10-22T08:06:23;791.08;;;737.50;;
7747;SDS011;3918;42.564;23.164;2022-10-22T08:08:50;771.63;;;719.38;;
7747;SDS011;3918;42.564;23.164;2022-10-22T08:11:16;684.60;;;638.90;;
7747;SDS011;3918;42.564;23.164;2022-10-22T08:13:46;743.72;;;693.42;;
7747;SDS011;3918;42.564;23.164;2022-10-22T08:16:13;720.53;;;671.85;;
7747;SDS011;3918;42.564;23.164;2022-10-22T08:18:41;710.70;;;662.53;;
7747;SDS011;3918;42.564;23.164;2022-10-22T08:21:08;696.70;;;650.17;;
7747;SDS011;3918;42.564;23.164;2022-10-22T08:23:35;687.58;;;641.55;;
7747;SDS011;3918;42.564;23.164;2022-10-22T08:26:02;697.80;;;650.55;;
7747;SDS011;3918;42.564;23.164;2022-10-22T08:28:29;640.05;;;599.17;;
7747;SDS011;3918;42.564;23.164;2022-10-22T08:31:00;593.13;;;555.53;;
7747;SDS011;3918;42.564;23.164;2022-10-22T08:33:26;589.10;;;552.05;;
7747;SDS011;3918;42.564;23.164;2022-10-22T08:35:55;637.42;;;595.72;;
7747;SDS011;3918;42.564;23.164;2022-10-22T08:38:21;736.72;;;687.28;;
7747;SDS011;3918;42.564;23.164;2022-10-22T08:40:49;570.78;;;535.53;;
7747;SDS011;3918;42.564;23.164;2022-10-22T08:43:25;508.63;;;478.60;;
7747;SDS011;3918;42.564;23.164;2022-10-22T08:46:05;501.73;;;472.63;;
7747;SDS011;3918;42.564;23.164;2022-10-22T08:48:44;474.92;;;447.10;;
7747;SDS011;3918;42.564;23.164;2022-10-22T08:51:16;555.80;;;521.75;;
7747;SDS011;3918;42.564;23.164;2022-10-22T08:56:46;617.22;;;577.50;;
7747;SDS011;3918;42.564;23.164;2022-10-22T08:59:22;650.65;;;607.63;;
7747;SDS011;3918;42.564;23.164;2022-10-22T09:01:57;648.20;;;606.13;;
7747;SDS011;3918;42.564;23.164;2022-10-22T09:04:25;663.90;;;620.20;;
7747;SDS011;3918;42.564;23.164;2022-10-22T09:06:58;653.30;;;610.92;;
7747;SDS011;3918;42.564;23.164;2022-10-22T09:09:26;684.03;;;637.88;;
7747;SDS011;3918;42.564;23.164;2022-10-22T09:11:59;655.65;;;612.30;;
7747;SDS011;3918;42.564;23.164;2022-10-22T09:14:26;691.95;;;645.28;;
7747;SDS011;3918;42.564;23.164;2022-10-22T09:17:11;726.45;;;677.47;;
7747;SDS011;3918;42.564;23.164;2022-10-22T09:19:45;721.00;;;672.35;;
7747;SDS011;3918;42.564;23.164;2022-10-22T09:22:24;741.75;;;691.65;;
7747;SDS011;3918;42.564;23.164;2022-10-22T09:24:58;710.80;;;662.80;;
7747;SDS011;3918;42.564;23.164;2022-10-22T09:27:36;723.25;;;674.65;;
7747;SDS011;3918;42.564;23.164;2022-10-22T09:30:03;691.08;;;644.80;;
7747;SDS011;3918;42.564;23.164;2022-10-22T09:32:31;688.10;;;642.22;;
7747;SDS011;3918;42.564;23.164;2022-10-22T09:34:58;706.20;;;658.78;;
7747;SDS011;3918;42.564;23.164;2022-10-22T09:37:26;739.20;;;689.38;;
7747;SDS011;3918;42.564;23.164;2022-10-22T09:39:55;711.10;;;663.15;;
7747;SDS011;3918;42.564;23.164;2022-10-22T09:42:24;729.65;;;680.55;;
7747;SDS011;3918;42.564;23.164;2022-10-22T09:44:51;719.85;;;671.47;;
7747;SDS011;3918;42.564;23.164;2022-10-22T09:47:28;667.45;;;623.95;;
7747;SDS011;3918;42.564;23.164;2022-10-22T09:50:08;615.17;;;576.42;;
7747;SDS011;3918;42.564;23.164;2022-10-22T09:52:46;623.15;;;583.70;;
7747;SDS011;3918;42.564;23.164;2022-10-22T09:55:23;623.13;;;582.35;;
7747;SDS011;3918;42.564;23.164;2022-10-22T09:57:51;647.40;;;605.67;;
7747;SDS011;3918;42.564;23.164;2022-10-22T10:00:19;610.72;;;571.92;;
7747;SDS011;3918;42.564;23.164;2022-10-22T10:02:52;601.50;;;563.00;;
7747;SDS011;3918;42.564;23.164;2022-10-22T10:05:23;613.85;;;575.22;;
7747;SDS011;3918;42.564;23.164;2022-10-22T10:07:53;595.05;;;558.13;;
7747;SDS011;3918;42.564;23.164;2022-10-22T10:10:25;639.42;;;598.33;;
7747;SDS011;3918;42.564;23.164;2022-10-22T10:13:00;624.90;;;585.42;;
7747;SDS011;3918;42.564;23.164;2022-10-22T10:15:36;623.40;;;583.83;;
7747;SDS011;3918;42.564;23.164;2022-10-22T10:18:11;603.00;;;563.95;;
7747;SDS011;3918;42.564;23.164;2022-10-22T10:20:49;634.35;;;593.53;;
7747;SDS011;3918;42.564;23.164;2022-10-22T10:23:24;639.97;;;598.67;;
7747;SDS011;3918;42.564;23.164;2022-10-22T10:26:00;614.33;;;574.95;;
7747;SDS011;3918;42.564;23.164;2022-10-22T10:31:26;636.25;;;595.28;;
7747;SDS011;3918;42.564;23.164;2022-10-22T10:34:05;701.78;;;654.38;;
7747;SDS011;3918;42.564;23.164;2022-10-22T10:36:47;574.35;;;538.70;;
7747;SDS011;3918;42.564;23.164;2022-10-22T10:39:28;557.78;;;523.67;;
7747;SDS011;3918;42.564;23.164;2022-10-22T10:42:03;610.50;;;572.42;;
7747;SDS011;3918;42.564;23.164;2022-10-22T10:44:45;728.83;;;680.05;;
7747;SDS011;3918;42.564;23.164;2022-10-22T10:47:25;751.17;;;700.42;;
7747;SDS011;3918;42.564;23.164;2022-10-22T10:50:17;738.58;;;688.13;;
7747;SDS011;3918;42.564;23.164;2022-10-22T10:52:51;714.67;;;666.55;;
7747;SDS011;3918;42.564;23.164;2022-10-22T10:55:28;704.28;;;657.35;;
7747;SDS011;3918;42.564;23.164;2022-10-22T10:58:01;675.45;;;630.85;;
7747;SDS011;3918;42.564;23.164;2022-10-22T11:00:40;743.22;;;692.97;;
7747;SDS011;3918;42.564;23.164;2022-10-22T11:06:05;770.53;;;718.47;;
7747;SDS011;3918;42.564;23.164;2022-10-22T11:08:35;800.78;;;746.78;;
7747;SDS011;3918;42.564;23.164;2022-10-22T11:11:08;805.42;;;750.53;;
7747;SDS011;3918;42.564;23.164;2022-10-22T11:13:39;741.03;;;691.58;;
7747;SDS011;3918;42.564;23.164;2022-10-22T11:16:13;785.65;;;732.67;;
7747;SDS011;3918;42.564;23.164;2022-10-22T11:18:46;787.60;;;734.45;;
7747;SDS011;3918;42.564;23.164;2022-10-22T11:21:20;810.30;;;755.30;;
7747;SDS011;3918;42.564;23.164;2022-10-22T11:23:53;798.10;;;744.03;;
7747;SDS011;3918;42.564;23.164;2022-10-22T11:26:31;805.28;;;750.60;;
7747;SDS011;3918;42.564;23.164;2022-10-22T11:29:03;824.63;;;767.95;;
7747;SDS011;3918;42.564;23.164;2022-10-22T11:31:35;793.33;;;739.60;;
7747;SDS011;3918;42.564;23.164;2022-10-22T11:34:04;815.05;;;759.83;;
7747;SDS011;3918;42.564;23.164;2022-10-22T11:36:36;793.25;;;739.55;;
7747;SDS011;3918;42.564;23.164;2022-10-22T11:39:04;806.92;;;752.08;;
7747;SDS011;3918;42.564;23.164;2022-10-22T11:41:32;789.78;;;736.17;;
7747;SDS011;3918;42.564;23.164;2022-10-22T11:44:09;777.08;;;724.60;;
7747;SDS011;3918;42.564;23.164;2022-10-22T11:46:44;752.05;;;701.20;;
7747;SDS011;3918;42.564;23.164;2022-10-22T11:49:21;764.78;;;712.78;;
7747;SDS011;3918;42.564;23.164;2022-10-22T11:51:49;794.45;;;740.30;;
7747;SDS011;3918;42.564;23.164;2022-10-22T11:54:28;803.13;;;748.17;;
7747;SDS011;3918;42.564;23.164;2022-10-22T11:57:18;979.45;;;905.75;;
7747;SDS011;3918;42.564;23.164;2022-10-22T11:59:50;964.88;;;894.42;;
7747;SDS011;3918;42.564;23.164;2022-10-22T12:08:15;926.20;;;860.47;;
7747;SDS011;3918;42.564;23.164;2022-10-22T12:13:57;878.38;;;817.50;;
7747;SDS011;3918;42.564;23.164;2022-10-22T12:16:34;868.30;;;807.95;;
7747;SDS011;3918;42.564;23.164;2022-10-22T12:19:03;871.42;;;811.25;;
7747;SDS011;3918;42.564;23.164;2022-10-22T12:21:37;865.05;;;804.90;;
7747;SDS011;3918;42.564;23.164;2022-10-22T12:24:06;902.50;;;838.85;;
7747;SDS011;3918;42.564;23.164;2022-10-22T12:26:39;871.72;;;810.83;;
7747;SDS011;3918;42.564;23.164;2022-10-22T12:29:10;879.15;;;818.08;;
7747;SDS011;3918;42.564;23.164;2022-10-22T12:31:39;877.17;;;816.20;;
7747;SDS011;3918;42.564;23.164;2022-10-22T12:34:11;877.08;;;816.03;;
7747;SDS011;3918;42.564;23.164;2022-10-22T12:36:39;872.17;;;811.53;;
7747;SDS011;3918;42.564;23.164;2022-10-22T12:39:08;875.00;;;814.28;;
7747;SDS011;3918;42.564;23.164;2022-10-22T12:41:39;870.92;;;810.75;;
7747;SDS011;3918;42.564;23.164;2022-10-22T12:44:06;866.50;;;806.78;;
7747;SDS011;3918;42.564;23.164;2022-10-22T12:46:34;867.78;;;807.65;;
7747;SDS011;3918;42.564;23.164;2022-10-22T12:49:02;872.50;;;811.38;;
7747;SDS011;3918;42.564;23.164;2022-10-22T12:51:31;863.85;;;803.78;;
7747;SDS011;3918;42.564;23.164;2022-10-22T12:54:00;860.70;;;801.17;;
7747;SDS011;3918;42.564;23.164;2022-10-22T12:56:32;866.45;;;806.55;;
7747;SDS011;3918;42.564;23.164;2022-10-22T12:59:00;858.00;;;798.88;;
7747;SDS011;3918;42.564;23.164;2022-10-22T13:01:31;858.65;;;799.20;;
7747;SDS011;3918;42.564;23.164;2022-10-22T13:04:05;867.38;;;807.53;;
7747;SDS011;3918;42.564;23.164;2022-10-22T13:06:45;868.45;;;808.33;;
7747;SDS011;3918;42.564;23.164;2022-10-22T13:09:16;869.75;;;809.80;;
7747;SDS011;3918;42.564;23.164;2022-10-22T13:11:49;849.95;;;791.35;;
7747;SDS011;3918;42.564;23.164;2022-10-22T13:14:21;853.72;;;794.47;;
7747;SDS011;3918;42.564;23.164;2022-10-22T13:17:03;857.47;;;798.22;;
7747;SDS011;3918;42.564;23.164;2022-10-22T13:19:34;851.55;;;792.90;;
7747;SDS011;3918;42.564;23.164;2022-10-22T13:22:03;853.40;;;794.70;;
7747;SDS011;3918;42.564;23.164;2022-10-22T13:24:30;847.20;;;789.00;;
7747;SDS011;3918;42.564;23.164;2022-10-22T13:26:56;853.55;;;794.92;;
7747;SDS011;3918;42.564;23.164;2022-10-22T13:29:23;840.60;;;782.78;;
7747;SDS011;3918;42.564;23.164;2022-10-22T13:31:51;849.00;;;790.40;;
7747;SDS011;3918;42.564;23.164;2022-10-22T13:34:20;853.08;;;794.38;;
7747;SDS011;3918;42.564;23.164;2022-10-22T13:36:50;851.30;;;792.08;;
7747;SDS011;3918;42.564;23.164;2022-10-22T13:39:17;843.70;;;785.55;;
7747;SDS011;3918;42.564;23.164;2022-10-22T13:41:45;850.80;;;792.25;;
7747;SDS011;3918;42.564;23.164;2022-10-22T13:44:14;843.70;;;785.85;;
7747;SDS011;3918;42.564;23.164;2022-10-22T13:46:41;848.25;;;790.08;;
7747;SDS011;3918;42.564;23.164;2022-10-22T13:49:09;841.42;;;783.88;;
7747;SDS011;3918;42.564;23.164;2022-10-22T13:51:41;844.53;;;786.70;;
7747;SDS011;3918;42.564;23.164;2022-10-22T13:54:09;836.60;;;779.00;;
7747;SDS011;3918;42.564;23.164;2022-10-22T13:56:41;853.17;;;795.05;;
7747;SDS011;3918;42.564;23.164;2022-10-22T13:59:07;837.70;;;780.33;;
7747;SDS011;3918;42.564;23.164;2022-10-22T14:01:35;836.53;;;778.97;;
7747;SDS011;3918;42.564;23.164;2022-10-22T14:04:03;846.47;;;788.20;;
7747;SDS011;3918;42.564;23.164;2022-10-22T14:06:31;833.10;;;775.60;;
7747;SDS011;3918;42.564;23.164;2022-10-22T14:09:02;848.17;;;789.80;;
7747;SDS011;3918;42.564;23.164;2022-10-22T14:11:30;845.50;;;787.47;;
7747;SDS011;3918;42.564;23.164;2022-10-22T14:13:56;839.88;;;782.60;;
7747;SDS011;3918;42.564;23.164;2022-10-22T14:16:25;844.47;;;786.53;;
7747;SDS011;3918;42.564;23.164;2022-10-22T14:18:55;843.03;;;785.38;;
7747;SDS011;3918;42.564;23.164;2022-10-22T14:21:22;828.15;;;771.38;;
7747;SDS011;3918;42.564;23.164;2022-10-22T14:23:49;834.78;;;777.45;;
7747;SDS011;3918;42.564;23.164;2022-10-22T14:26:20;829.08;;;771.92;;
7747;SDS011;3918;42.564;23.164;2022-10-22T14:28:49;829.33;;;772.35;;
7747;SDS011;3918;42.564;23.164;2022-10-22T14:31:16;843.00;;;785.70;;
7747;SDS011;3918;42.564;23.164;2022-10-22T14:33:43;831.60;;;774.75;;
7747;SDS011;3918;42.564;23.164;2022-10-22T14:36:10;827.67;;;771.10;;
7747;SDS011;3918;42.564;23.164;2022-10-22T14:38:39;829.40;;;772.60;;
7747;SDS011;3918;42.564;23.164;2022-10-22T14:41:09;832.13;;;775.05;;
7747;SDS011;3918;42.564;23.164;2022-10-22T14:43:44;844.33;;;786.50;;
7747;SDS011;3918;42.564;23.164;2022-10-22T14:46:12;838.42;;;781.00;;
7747;SDS011;3918;42.564;23.164;2022-10-22T14:48:40;831.75;;;774.95;;
7747;SDS011;3918;42.564;23.164;2022-10-22T14:51:09;820.67;;;764.33;;
7747;SDS011;3918;42.564;23.164;2022-10-22T14:53:38;831.65;;;774.88;;
7747;SDS011;3918;42.564;23.164;2022-10-22T14:56:05;825.40;;;769.00;;
7747;SDS011;3918;42.564;23.164;2022-10-22T14:58:32;831.20;;;773.47;;
7747;SDS011;3918;42.564;23.164;2022-10-22T15:01:01;836.45;;;778.83;;
7747;SDS011;3918;42.564;23.164;2022-10-22T15:03:29;840.35;;;782.45;;
7747;SDS011;3918;42.564;23.164;2022-10-22T15:05:55;827.47;;;770.65;;
7747;SDS011;3918;42.564;23.164;2022-10-22T15:08:22;825.83;;;768.92;;
7747;SDS011;3918;42.564;23.164;2022-10-22T15:11:00;833.65;;;776.65;;
7747;SDS011;3918;42.564;23.164;2022-10-22T15:13:29;812.05;;;756.70;;
7747;SDS011;3918;42.564;23.164;2022-10-22T15:15:56;826.67;;;770.25;;
7747;SDS011;3918;42.564;23.164;2022-10-22T15:18:25;829.40;;;772.85;;
7747;SDS011;3918;42.564;23.164;2022-10-22T15:20:53;819.25;;;762.95;;
7747;SDS011;3918;42.564;23.164;2022-10-22T15:23:21;820.92;;;764.35;;
7747;SDS011;3918;42.564;23.164;2022-10-22T15:25:48;820.03;;;764.28;;
7747;SDS011;3918;42.564;23.164;2022-10-22T15:28:15;817.72;;;761.50;;
7747;SDS011;3918;42.564;23.164;2022-10-22T15:30:42;804.40;;;749.17;;
7747;SDS011;3918;42.564;23.164;2022-10-22T15:33:08;813.92;;;758.38;;
7747;SDS011;3918;42.564;23.164;2022-10-22T15:35:37;810.83;;;755.50;;
7747;SDS011;3918;42.564;23.164;2022-10-22T15:38:04;816.17;;;760.47;;
7747;SDS011;3918;42.564;23.164;2022-10-22T15:40:33;808.85;;;753.40;;
7747;SDS011;3918;42.564;23.164;2022-10-22T15:43:00;803.80;;;748.75;;
7747;SDS011;3918;42.564;23.164;2022-10-22T15:45:27;817.40;;;761.75;;
7747;SDS011;3918;42.564;23.164;2022-10-22T15:47:53;824.70;;;768.03;;
7747;SDS011;3918;42.564;23.164;2022-10-22T15:50:20;804.75;;;749.65;;
7747;SDS011;3918;42.564;23.164;2022-10-22T15:52:48;792.63;;;738.63;;
7747;SDS011;3918;42.564;23.164;2022-10-22T15:55:15;793.90;;;739.75;;
7747;SDS011;3918;42.564;23.164;2022-10-22T15:57:42;789.63;;;735.83;;
7747;SDS011;3918;42.564;23.164;2022-10-22T16:00:10;800.17;;;745.60;;
7747;SDS011;3918;42.564;23.164;2022-10-22T16:02:37;820.95;;;764.20;;
7747;SDS011;3918;42.564;23.164;2022-10-22T16:05:04;807.15;;;751.67;;
7747;SDS011;3918;42.564;23.164;2022-10-22T16:07:32;810.45;;;755.05;;
7747;SDS011;3918;42.564;23.164;2022-10-22T16:10:00;801.00;;;746.22;;
7747;SDS011;3918;42.564;23.164;2022-10-22T16:12:27;806.40;;;751.17;;
7747;SDS011;3918;42.564;23.164;2022-10-22T16:14:53;808.45;;;753.13;;
7747;SDS011;3918;42.564;23.164;2022-10-22T16:17:20;801.97;;;746.97;;
7747;SDS011;3918;42.564;23.164;2022-10-22T16:19:47;807.75;;;752.20;;
7747;SDS011;3918;42.564;23.164;2022-10-22T16:22:14;795.47;;;740.40;;
7747;SDS011;3918;42.564;23.164;2022-10-22T16:24:40;807.80;;;752.47;;
7747;SDS011;3918;42.564;23.164;2022-10-22T16:27:09;801.78;;;746.60;;
7747;SDS011;3918;42.564;23.164;2022-10-22T16:29:36;812.78;;;757.00;;
7747;SDS011;3918;42.564;23.164;2022-10-22T16:32:03;811.15;;;755.15;;
7747;SDS011;3918;42.564;23.164;2022-10-22T16:34:30;820.63;;;764.38;;
7747;SDS011;3918;42.564;23.164;2022-10-22T16:36:57;809.78;;;753.90;;
7747;SDS011;3918;42.564;23.164;2022-10-22T16:39:24;822.80;;;765.92;;
7747;SDS011;3918;42.564;23.164;2022-10-22T16:41:50;819.47;;;762.33;;
7747;SDS011;3918;42.564;23.164;2022-10-22T16:44:19;822.75;;;765.92;;
7747;SDS011;3918;42.564;23.164;2022-10-22T16:46:45;823.17;;;766.30;;
7747;SDS011;3918;42.564;23.164;2022-10-22T16:49:12;835.80;;;778.22;;
7747;SDS011;3918;42.564;23.164;2022-10-22T16:51:39;823.55;;;766.30;;
7747;SDS011;3918;42.564;23.164;2022-10-22T16:54:06;840.78;;;782.78;;
7747;SDS011;3918;42.564;23.164;2022-10-22T16:56:33;833.72;;;775.97;;
7747;SDS011;3918;42.564;23.164;2022-10-22T16:59:00;855.47;;;795.38;;
7747;SDS011;3918;42.564;23.164;2022-10-22T17:01:28;843.25;;;784.72;;
7747;SDS011;3918;42.564;23.164;2022-10-22T17:03:57;854.13;;;795.13;;
7747;SDS011;3918;42.564;23.164;2022-10-22T17:06:24;848.42;;;789.65;;
7747;SDS011;3918;42.564;23.164;2022-10-22T17:08:52;848.80;;;789.83;;
7747;SDS011;3918;42.564;23.164;2022-10-22T17:11:19;856.13;;;796.50;;
7747;SDS011;3918;42.564;23.164;2022-10-22T17:13:51;855.63;;;795.58;;
7747;SDS011;3918;42.564;23.164;2022-10-22T17:16:19;856.75;;;796.83;;
7747;SDS011;3918;42.564;23.164;2022-10-22T17:18:49;853.00;;;794.00;;
7747;SDS011;3918;42.564;23.164;2022-10-22T17:21:18;857.22;;;797.55;;
7747;SDS011;3918;42.564;23.164;2022-10-22T17:23:45;858.17;;;798.05;;
7747;SDS011;3918;42.564;23.164;2022-10-22T17:26:13;856.30;;;796.80;;
7747;SDS011;3918;42.564;23.164;2022-10-22T17:28:42;864.53;;;804.35;;
7747;SDS011;3918;42.564;23.164;2022-10-22T17:31:10;847.63;;;788.78;;
7747;SDS011;3918;42.564;23.164;2022-10-22T17:33:41;855.05;;;795.33;;
7747;SDS011;3918;42.564;23.164;2022-10-22T17:36:10;856.17;;;796.45;;
7747;SDS011;3918;42.564;23.164;2022-10-22T17:38:38;857.83;;;798.30;;
7747;SDS011;3918;42.564;23.164;2022-10-22T17:41:06;856.30;;;796.53;;
7747;SDS011;3918;42.564;23.164;2022-10-22T17:43:34;864.70;;;804.60;;
7747;SDS011;3918;42.564;23.164;2022-10-22T17:46:02;858.55;;;798.88;;
7747;SDS011;3918;42.564;23.164;2022-10-22T17:48:30;858.15;;;798.47;;
7747;SDS011;3918;42.564;23.164;2022-10-22T17:50:56;866.55;;;806.05;;
7747;SDS011;3918;42.564;23.164;2022-10-22T17:53:25;856.05;;;796.35;;
7747;SDS011;3918;42.564;23.164;2022-10-22T17:55:57;861.33;;;801.42;;
7747;SDS011;3918;42.564;23.164;2022-10-22T17:58:25;855.55;;;796.25;;
7747;SDS011;3918;42.564;23.164;2022-10-22T18:00:54;850.47;;;791.50;;
7747;SDS011;3918;42.564;23.164;2022-10-22T18:03:21;863.53;;;803.45;;
7747;SDS011;3918;42.564;23.164;2022-10-22T18:05:47;852.28;;;793.20;;
7747;SDS011;3918;42.564;23.164;2022-10-22T18:08:14;861.85;;;801.80;;
7747;SDS011;3918;42.564;23.164;2022-10-22T18:10:42;859.85;;;799.97;;
7747;SDS011;3918;42.564;23.164;2022-10-22T18:13:09;850.20;;;790.95;;
7747;SDS011;3918;42.564;23.164;2022-10-22T18:15:36;858.40;;;799.15;;
7747;SDS011;3918;42.564;23.164;2022-10-22T18:18:03;857.40;;;797.92;;
7747;SDS011;3918;42.564;23.164;2022-10-22T18:20:30;847.15;;;788.08;;
7747;SDS011;3918;42.564;23.164;2022-10-22T18:22:57;863.58;;;803.35;;
7747;SDS011;3918;42.564;23.164;2022-10-22T18:25:23;866.70;;;806.33;;
7747;SDS011;3918;42.564;23.164;2022-10-22T18:27:51;879.45;;;818.08;;
7747;SDS011;3918;42.564;23.164;2022-10-22T18:30:18;875.38;;;814.03;;
7747;SDS011;3918;42.564;23.164;2022-10-22T18:32:45;868.88;;;807.97;;
7747;SDS011;3918;42.564;23.164;2022-10-22T18:35:12;880.47;;;818.60;;
7747;SDS011;3918;42.564;23.164;2022-10-22T18:37:39;876.95;;;815.35;;
7747;SDS011;3918;42.564;23.164;2022-10-22T18:40:06;877.25;;;815.20;;
7747;SDS011;3918;42.564;23.164;2022-10-22T18:42:34;878.53;;;816.60;;
7747;SDS011;3918;42.564;23.164;2022-10-22T18:45:06;886.75;;;823.88;;
7747;SDS011;3918;42.564;23.164;2022-10-22T18:47:33;885.45;;;822.95;;
7747;SDS011;3918;42.564;23.164;2022-10-22T18:50:00;889.92;;;826.90;;
7747;SDS011;3918;42.564;23.164;2022-10-22T18:52:26;884.78;;;822.05;;
7747;SDS011;3918;42.564;23.164;2022-10-22T18:54:53;896.17;;;832.63;;
7747;SDS011;3918;42.564;23.164;2022-10-22T18:57:20;892.08;;;828.65;;
7747;SDS011;3918;42.564;23.164;2022-10-22T18:59:47;890.08;;;826.50;;
